sensor_id;sensor_type;location;lat;lon;timestamp;P1;durP1;ratioP1;P2;durP2;ratioP2
12334;SDS011;6233;51.560;9.986;2023-02-21T00:00:20;23.60;;;14.37;;
12334;SDS011;6233;51.560;9.986;2023-02-21T00:03:41;19.53;;;12.23;;
12334;SDS011;6233;51.560;9.986;2023-02-21T00:07:01;20.90;;;12.43;;
12334;SDS011;6233;51.560;9.986;2023-02-21T00:10:21;18.00;;;11.47;;
12334;SDS011;6233;51.560;9.986;2023-02-21T00:13:42;17.57;;;11.97;;
12334;SDS011;6233;51.560;9.986;2023-02-21T00:17:02;17.47;;;11.43;;
12334;SDS011;6233;51.560;9.986;2023-02-21T00:20:23;21.47;;;12.93;;
12334;SDS011;6233;51.560;9.986;2023-02-21T00:23:43;18.97;;;12.43;;
12334;SDS011;6233;51.560;9.986;2023-02-21T00:27:03;26.77;;;13.27;;
12334;SDS011;6233;51.560;9.986;2023-02-21T00:30:24;19.87;;;12.53;;
12334;SDS011;6233;51.560;9.986;2023-02-21T00:33:44;20.23;;;12.17;;
12334;SDS011;6233;51.560;9.986;2023-02-21T00:37:04;21.03;;;12.77;;
12334;SDS011;6233;51.560;9.986;2023-02-21T00:40:25;20.30;;;12.63;;
12334;SDS011;6233;51.560;9.986;2023-02-21T00:43:45;20.43;;;12.73;;
12334;SDS011;6233;51.560;9.986;2023-02-21T00:47:06;19.03;;;11.87;;
12334;SDS011;6233;51.560;9.986;2023-02-21T00:50:26;20.87;;;12.13;;
12334;SDS011;6233;51.560;9.986;2023-02-21T00:53:47;20.83;;;12.17;;
12334;SDS011;6233;51.560;9.986;2023-02-21T00:57:07;19.40;;;12.53;;
12334;SDS011;6233;51.560;9.986;2023-02-21T01:00:27;19.90;;;12.10;;
12334;SDS011;6233;51.560;9.986;2023-02-21T01:03:48;19.60;;;11.87;;
12334;SDS011;6233;51.560;9.986;2023-02-21T01:07:08;23.67;;;13.30;;
12334;SDS011;6233;51.560;9.986;2023-02-21T01:10:29;22.43;;;12.77;;
12334;SDS011;6233;51.560;9.986;2023-02-21T01:13:50;23.67;;;13.97;;
12334;SDS011;6233;51.560;9.986;2023-02-21T01:17:10;24.23;;;14.83;;
12334;SDS011;6233;51.560;9.986;2023-02-21T01:20:31;24.53;;;14.30;;
12334;SDS011;6233;51.560;9.986;2023-02-21T01:23:51;23.87;;;14.03;;
12334;SDS011;6233;51.560;9.986;2023-02-21T01:27:11;25.57;;;15.60;;
12334;SDS011;6233;51.560;9.986;2023-02-21T01:30:32;22.40;;;13.67;;
12334;SDS011;6233;51.560;9.986;2023-02-21T01:33:52;21.87;;;14.17;;
12334;SDS011;6233;51.560;9.986;2023-02-21T01:37:13;24.13;;;15.00;;
12334;SDS011;6233;51.560;9.986;2023-02-21T01:40:33;22.27;;;14.43;;
12334;SDS011;6233;51.560;9.986;2023-02-21T01:43:57;23.93;;;14.70;;
12334;SDS011;6233;51.560;9.986;2023-02-21T01:47:19;23.53;;;14.87;;
12334;SDS011;6233;51.560;9.986;2023-02-21T01:50:40;28.27;;;16.03;;
12334;SDS011;6233;51.560;9.986;2023-02-21T01:54:01;30.63;;;16.13;;
12334;SDS011;6233;51.560;9.986;2023-02-21T01:57:23;28.13;;;16.30;;
12334;SDS011;6233;51.560;9.986;2023-02-21T02:00:43;28.43;;;16.17;;
12334;SDS011;6233;51.560;9.986;2023-02-21T02:04:04;29.00;;;17.03;;
12334;SDS011;6233;51.560;9.986;2023-02-21T02:07:24;30.80;;;17.93;;
12334;SDS011;6233;51.560;9.986;2023-02-21T02:10:45;29.63;;;16.13;;
12334;SDS011;6233;51.560;9.986;2023-02-21T02:21:00;28.60;;;15.90;;
12334;SDS011;6233;51.560;9.986;2023-02-21T02:45:24;30.67;;;17.73;;
12334;SDS011;6233;51.560;9.986;2023-02-21T02:48:49;31.83;;;18.23;;
12334;SDS011;6233;51.560;9.986;2023-02-21T02:51:52;30.07;;;18.10;;
12334;SDS011;6233;51.560;9.986;2023-02-21T02:55:38;30.10;;;18.53;;
12334;SDS011;6233;51.560;9.986;2023-02-21T02:58:29;30.50;;;18.60;;
12334;SDS011;6233;51.560;9.986;2023-02-21T03:11:27;33.80;;;19.80;;
12334;SDS011;6233;51.560;9.986;2023-02-21T03:14:37;28.90;;;19.07;;
12334;SDS011;6233;51.560;9.986;2023-02-21T03:17:58;32.10;;;19.50;;
12334;SDS011;6233;51.560;9.986;2023-02-21T03:21:07;31.33;;;18.93;;
12334;SDS011;6233;51.560;9.986;2023-02-21T03:24:12;29.93;;;18.57;;
12334;SDS011;6233;51.560;9.986;2023-02-21T03:27:16;30.43;;;19.00;;
12334;SDS011;6233;51.560;9.986;2023-02-21T03:30:19;30.50;;;19.73;;
12334;SDS011;6233;51.560;9.986;2023-02-21T03:33:22;33.97;;;20.20;;
12334;SDS011;6233;51.560;9.986;2023-02-21T03:36:24;34.30;;;20.53;;
12334;SDS011;6233;51.560;9.986;2023-02-21T03:39:26;32.57;;;20.03;;
12334;SDS011;6233;51.560;9.986;2023-02-21T03:42:28;31.77;;;20.07;;
12334;SDS011;6233;51.560;9.986;2023-02-21T03:45:30;37.23;;;21.40;;
12334;SDS011;6233;51.560;9.986;2023-02-21T03:48:32;38.37;;;21.20;;
12334;SDS011;6233;51.560;9.986;2023-02-21T03:51:34;37.53;;;22.07;;
12334;SDS011;6233;51.560;9.986;2023-02-21T03:54:35;37.97;;;22.80;;
12334;SDS011;6233;51.560;9.986;2023-02-21T03:57:38;44.30;;;24.80;;
12334;SDS011;6233;51.560;9.986;2023-02-21T04:00:40;42.63;;;23.60;;
12334;SDS011;6233;51.560;9.986;2023-02-21T04:03:41;41.33;;;22.63;;
12334;SDS011;6233;51.560;9.986;2023-02-21T04:06:43;41.80;;;23.07;;
12334;SDS011;6233;51.560;9.986;2023-02-21T04:09:45;40.43;;;24.37;;
12334;SDS011;6233;51.560;9.986;2023-02-21T04:12:48;51.60;;;29.50;;
12334;SDS011;6233;51.560;9.986;2023-02-21T04:15:50;44.67;;;24.77;;
12334;SDS011;6233;51.560;9.986;2023-02-21T04:18:51;41.23;;;23.40;;
12334;SDS011;6233;51.560;9.986;2023-02-21T04:21:53;42.03;;;24.00;;
12334;SDS011;6233;51.560;9.986;2023-02-21T04:24:55;46.00;;;24.60;;
12334;SDS011;6233;51.560;9.986;2023-02-21T04:27:56;44.80;;;23.87;;
12334;SDS011;6233;51.560;9.986;2023-02-21T04:30:58;43.53;;;23.90;;
12334;SDS011;6233;51.560;9.986;2023-02-21T04:34:00;46.03;;;24.50;;
12334;SDS011;6233;51.560;9.986;2023-02-21T04:37:12;40.97;;;24.43;;
12334;SDS011;6233;51.560;9.986;2023-02-21T04:40:14;48.63;;;26.00;;
12334;SDS011;6233;51.560;9.986;2023-02-21T04:43:15;45.10;;;25.07;;
12334;SDS011;6233;51.560;9.986;2023-02-21T04:46:17;45.00;;;24.67;;
12334;SDS011;6233;51.560;9.986;2023-02-21T04:49:19;44.80;;;23.47;;
12334;SDS011;6233;51.560;9.986;2023-02-21T04:52:21;44.97;;;25.40;;
12334;SDS011;6233;51.560;9.986;2023-02-21T04:55:22;43.97;;;25.53;;
12334;SDS011;6233;51.560;9.986;2023-02-21T04:58:24;42.63;;;24.20;;
12334;SDS011;6233;51.560;9.986;2023-02-21T05:01:31;42.23;;;22.97;;
12334;SDS011;6233;51.560;9.986;2023-02-21T05:04:34;39.50;;;23.47;;
12334;SDS011;6233;51.560;9.986;2023-02-21T05:07:36;42.37;;;23.10;;
12334;SDS011;6233;51.560;9.986;2023-02-21T05:10:38;41.53;;;24.20;;
12334;SDS011;6233;51.560;9.986;2023-02-21T05:13:46;42.03;;;24.47;;
12334;SDS011;6233;51.560;9.986;2023-02-21T05:16:48;45.40;;;23.80;;
12334;SDS011;6233;51.560;9.986;2023-02-21T05:19:50;42.07;;;23.53;;
12334;SDS011;6233;51.560;9.986;2023-02-21T05:22:52;40.23;;;21.90;;
12334;SDS011;6233;51.560;9.986;2023-02-21T05:25:58;44.87;;;23.13;;
12334;SDS011;6233;51.560;9.986;2023-02-21T05:29:00;43.23;;;22.53;;
12334;SDS011;6233;51.560;9.986;2023-02-21T05:32:02;40.90;;;21.83;;
12334;SDS011;6233;51.560;9.986;2023-02-21T05:35:04;47.40;;;24.90;;
12334;SDS011;6233;51.560;9.986;2023-02-21T05:38:07;43.47;;;23.33;;
12334;SDS011;6233;51.560;9.986;2023-02-21T05:41:08;41.20;;;23.03;;
12334;SDS011;6233;51.560;9.986;2023-02-21T05:44:10;39.03;;;22.10;;
12334;SDS011;6233;51.560;9.986;2023-02-21T05:47:12;41.60;;;23.07;;
12334;SDS011;6233;51.560;9.986;2023-02-21T05:50:15;41.73;;;23.50;;
12334;SDS011;6233;51.560;9.986;2023-02-21T05:53:17;42.70;;;22.90;;
12334;SDS011;6233;51.560;9.986;2023-02-21T05:56:19;41.27;;;22.97;;
12334;SDS011;6233;51.560;9.986;2023-02-21T05:59:21;41.90;;;22.50;;
12334;SDS011;6233;51.560;9.986;2023-02-21T06:02:23;39.27;;;22.60;;
12334;SDS011;6233;51.560;9.986;2023-02-21T06:05:25;41.70;;;22.43;;
12334;SDS011;6233;51.560;9.986;2023-02-21T06:08:27;39.30;;;23.07;;
12334;SDS011;6233;51.560;9.986;2023-02-21T06:11:30;40.17;;;22.00;;
12334;SDS011;6233;51.560;9.986;2023-02-21T06:14:33;37.03;;;21.13;;
12334;SDS011;6233;51.560;9.986;2023-02-21T06:17:35;38.33;;;22.33;;
12334;SDS011;6233;51.560;9.986;2023-02-21T06:20:37;38.23;;;21.73;;
12334;SDS011;6233;51.560;9.986;2023-02-21T06:23:39;42.17;;;22.37;;
12334;SDS011;6233;51.560;9.986;2023-02-21T06:26:41;40.60;;;22.07;;
12334;SDS011;6233;51.560;9.986;2023-02-21T06:29:43;39.63;;;22.87;;
12334;SDS011;6233;51.560;9.986;2023-02-21T06:32:44;42.90;;;22.90;;
12334;SDS011;6233;51.560;9.986;2023-02-21T06:35:46;39.67;;;22.17;;
12334;SDS011;6233;51.560;9.986;2023-02-21T06:38:49;37.73;;;21.70;;
12334;SDS011;6233;51.560;9.986;2023-02-21T06:41:51;39.20;;;22.03;;
12334;SDS011;6233;51.560;9.986;2023-02-21T06:44:53;39.67;;;23.57;;
12334;SDS011;6233;51.560;9.986;2023-02-21T06:47:55;37.87;;;20.93;;
12334;SDS011;6233;51.560;9.986;2023-02-21T06:50:57;42.07;;;22.90;;
12334;SDS011;6233;51.560;9.986;2023-02-21T06:53:59;39.07;;;22.23;;
12334;SDS011;6233;51.560;9.986;2023-02-21T06:57:00;38.97;;;22.63;;
12334;SDS011;6233;51.560;9.986;2023-02-21T07:00:05;40.53;;;22.03;;
12334;SDS011;6233;51.560;9.986;2023-02-21T07:03:08;35.63;;;21.40;;
12334;SDS011;6233;51.560;9.986;2023-02-21T07:06:09;36.10;;;20.63;;
12334;SDS011;6233;51.560;9.986;2023-02-21T07:09:11;37.13;;;21.73;;
12334;SDS011;6233;51.560;9.986;2023-02-21T07:12:13;36.63;;;20.47;;
12334;SDS011;6233;51.560;9.986;2023-02-21T07:15:15;37.00;;;20.70;;
12334;SDS011;6233;51.560;9.986;2023-02-21T07:18:16;31.70;;;19.43;;
12334;SDS011;6233;51.560;9.986;2023-02-21T07:21:19;34.53;;;20.03;;
12334;SDS011;6233;51.560;9.986;2023-02-21T07:24:21;31.30;;;19.07;;
12334;SDS011;6233;51.560;9.986;2023-02-21T07:27:23;32.80;;;20.03;;
12334;SDS011;6233;51.560;9.986;2023-02-21T07:30:25;30.23;;;18.47;;
12334;SDS011;6233;51.560;9.986;2023-02-21T07:33:29;31.30;;;19.10;;
12334;SDS011;6233;51.560;9.986;2023-02-21T07:36:30;29.67;;;18.70;;
12334;SDS011;6233;51.560;9.986;2023-02-21T07:39:32;30.20;;;19.00;;
12334;SDS011;6233;51.560;9.986;2023-02-21T07:42:34;32.37;;;18.73;;
12334;SDS011;6233;51.560;9.986;2023-02-21T07:45:36;31.20;;;18.90;;
12334;SDS011;6233;51.560;9.986;2023-02-21T07:48:37;28.07;;;16.97;;
12334;SDS011;6233;51.560;9.986;2023-02-21T07:51:39;29.77;;;17.67;;
12334;SDS011;6233;51.560;9.986;2023-02-21T07:54:41;34.83;;;19.27;;
12334;SDS011;6233;51.560;9.986;2023-02-21T07:57:43;31.30;;;18.93;;
12334;SDS011;6233;51.560;9.986;2023-02-21T08:00:46;32.00;;;19.03;;
12334;SDS011;6233;51.560;9.986;2023-02-21T08:03:48;33.17;;;19.30;;
12334;SDS011;6233;51.560;9.986;2023-02-21T08:06:50;33.13;;;19.33;;
12334;SDS011;6233;51.560;9.986;2023-02-21T08:09:51;33.70;;;18.93;;
12334;SDS011;6233;51.560;9.986;2023-02-21T08:12:53;33.20;;;19.73;;
12334;SDS011;6233;51.560;9.986;2023-02-21T08:15:55;31.47;;;19.40;;
12334;SDS011;6233;51.560;9.986;2023-02-21T08:18:57;34.07;;;19.97;;
12334;SDS011;6233;51.560;9.986;2023-02-21T08:21:59;31.67;;;19.10;;
12334;SDS011;6233;51.560;9.986;2023-02-21T08:25:00;30.77;;;18.50;;
12334;SDS011;6233;51.560;9.986;2023-02-21T08:28:02;33.57;;;19.10;;
12334;SDS011;6233;51.560;9.986;2023-02-21T08:31:05;32.93;;;19.60;;
12334;SDS011;6233;51.560;9.986;2023-02-21T08:34:07;33.97;;;19.80;;
12334;SDS011;6233;51.560;9.986;2023-02-21T08:37:09;32.90;;;20.80;;
12334;SDS011;6233;51.560;9.986;2023-02-21T08:40:17;36.63;;;21.13;;
12334;SDS011;6233;51.560;9.986;2023-02-21T08:43:20;34.80;;;19.83;;
12334;SDS011;6233;51.560;9.986;2023-02-21T08:46:28;34.13;;;20.07;;
12334;SDS011;6233;51.560;9.986;2023-02-21T08:49:30;35.07;;;20.53;;
12334;SDS011;6233;51.560;9.986;2023-02-21T08:52:32;33.20;;;20.60;;
12334;SDS011;6233;51.560;9.986;2023-02-21T08:55:33;37.60;;;20.30;;
12334;SDS011;6233;51.560;9.986;2023-02-21T08:58:35;38.63;;;21.73;;
12334;SDS011;6233;51.560;9.986;2023-02-21T09:01:38;34.30;;;19.30;;
12334;SDS011;6233;51.560;9.986;2023-02-21T09:04:40;38.10;;;20.57;;
12334;SDS011;6233;51.560;9.986;2023-02-21T09:07:48;35.60;;;19.93;;
12334;SDS011;6233;51.560;9.986;2023-02-21T09:10:51;38.87;;;21.63;;
12334;SDS011;6233;51.560;9.986;2023-02-21T09:13:53;37.13;;;20.77;;
12334;SDS011;6233;51.560;9.986;2023-02-21T09:16:56;38.70;;;21.57;;
12334;SDS011;6233;51.560;9.986;2023-02-21T09:20:05;33.50;;;19.93;;
12334;SDS011;6233;51.560;9.986;2023-02-21T09:23:09;42.00;;;22.10;;
12334;SDS011;6233;51.560;9.986;2023-02-21T09:29:44;42.87;;;20.80;;
12334;SDS011;6233;51.560;9.986;2023-02-21T09:32:47;36.33;;;20.37;;
12334;SDS011;6233;51.560;9.986;2023-02-21T09:35:49;34.27;;;20.03;;
12334;SDS011;6233;51.560;9.986;2023-02-21T09:38:51;39.43;;;21.93;;
12334;SDS011;6233;51.560;9.986;2023-02-21T09:41:54;40.20;;;20.73;;
12334;SDS011;6233;51.560;9.986;2023-02-21T09:44:57;36.50;;;21.60;;
12334;SDS011;6233;51.560;9.986;2023-02-21T09:48:13;34.37;;;20.53;;
12334;SDS011;6233;51.560;9.986;2023-02-21T09:51:17;34.40;;;20.10;;
12334;SDS011;6233;51.560;9.986;2023-02-21T09:54:24;38.63;;;21.27;;
12334;SDS011;6233;51.560;9.986;2023-02-21T09:57:34;45.83;;;24.40;;
12334;SDS011;6233;51.560;9.986;2023-02-21T10:00:37;40.60;;;22.30;;
12334;SDS011;6233;51.560;9.986;2023-02-21T10:04:03;42.07;;;22.47;;
12334;SDS011;6233;51.560;9.986;2023-02-21T10:07:03;39.20;;;20.77;;
12334;SDS011;6233;51.560;9.986;2023-02-21T10:13:59;33.57;;;20.17;;
12334;SDS011;6233;51.560;9.986;2023-02-21T10:17:15;31.90;;;19.73;;
12334;SDS011;6233;51.560;9.986;2023-02-21T10:33:10;29.67;;;18.63;;
12334;SDS011;6233;51.560;9.986;2023-02-21T10:36:14;27.90;;;17.83;;
12334;SDS011;6233;51.560;9.986;2023-02-21T10:39:20;27.57;;;17.63;;
12334;SDS011;6233;51.560;9.986;2023-02-21T10:42:51;27.70;;;16.40;;
12334;SDS011;6233;51.560;9.986;2023-02-21T10:49:24;26.37;;;16.73;;
12334;SDS011;6233;51.560;9.986;2023-02-21T10:52:29;22.43;;;15.40;;
12334;SDS011;6233;51.560;9.986;2023-02-21T10:55:37;22.10;;;14.77;;
12334;SDS011;6233;51.560;9.986;2023-02-21T11:01:56;24.10;;;16.33;;
12334;SDS011;6233;51.560;9.986;2023-02-21T11:05:15;19.67;;;14.27;;
12334;SDS011;6233;51.560;9.986;2023-02-21T11:09:02;20.87;;;14.60;;
12334;SDS011;6233;51.560;9.986;2023-02-21T11:11:44;20.33;;;13.70;;
12334;SDS011;6233;51.560;9.986;2023-02-21T11:18:01;17.27;;;11.70;;
12334;SDS011;6233;51.560;9.986;2023-02-21T11:21:15;16.33;;;11.83;;
12334;SDS011;6233;51.560;9.986;2023-02-21T11:24:18;18.83;;;12.63;;
12334;SDS011;6233;51.560;9.986;2023-02-21T11:27:20;18.37;;;12.10;;
12334;SDS011;6233;51.560;9.986;2023-02-21T11:30:22;16.37;;;12.03;;
12334;SDS011;6233;51.560;9.986;2023-02-21T11:33:24;17.93;;;12.53;;
12334;SDS011;6233;51.560;9.986;2023-02-21T11:36:28;18.27;;;12.20;;
12334;SDS011;6233;51.560;9.986;2023-02-21T11:39:32;16.23;;;11.37;;
12334;SDS011;6233;51.560;9.986;2023-02-21T11:52:25;15.43;;;10.60;;
12334;SDS011;6233;51.560;9.986;2023-02-21T11:55:50;16.00;;;10.67;;
12334;SDS011;6233;51.560;9.986;2023-02-21T12:02:19;13.33;;;10.13;;
12334;SDS011;6233;51.560;9.986;2023-02-21T12:05:52;12.50;;;9.40;;
12334;SDS011;6233;51.560;9.986;2023-02-21T12:13:35;14.20;;;10.00;;
12334;SDS011;6233;51.560;9.986;2023-02-21T12:23:34;14.03;;;10.33;;
12334;SDS011;6233;51.560;9.986;2023-02-21T12:43:58;12.03;;;8.60;;
12334;SDS011;6233;51.560;9.986;2023-02-21T12:47:07;11.87;;;8.03;;
12334;SDS011;6233;51.560;9.986;2023-02-21T12:50:35;12.07;;;8.00;;
12334;SDS011;6233;51.560;9.986;2023-02-21T13:00:33;10.63;;;7.63;;
12334;SDS011;6233;51.560;9.986;2023-02-21T13:09:53;10.17;;;6.97;;
12334;SDS011;6233;51.560;9.986;2023-02-21T13:13:18;11.03;;;7.10;;
12334;SDS011;6233;51.560;9.986;2023-02-21T13:16:24;9.00;;;6.47;;
12334;SDS011;6233;51.560;9.986;2023-02-21T13:19:30;7.60;;;5.90;;
12334;SDS011;6233;51.560;9.986;2023-02-21T13:29:48;8.03;;;6.67;;
12334;SDS011;6233;51.560;9.986;2023-02-21T13:32:52;8.50;;;6.67;;
12334;SDS011;6233;51.560;9.986;2023-02-21T13:35:57;8.77;;;6.30;;
12334;SDS011;6233;51.560;9.986;2023-02-21T13:39:01;8.30;;;6.03;;
12334;SDS011;6233;51.560;9.986;2023-02-21T13:42:16;7.30;;;5.73;;
12334;SDS011;6233;51.560;9.986;2023-02-21T13:45:24;10.13;;;7.30;;
12334;SDS011;6233;51.560;9.986;2023-02-21T13:48:27;8.23;;;6.30;;
12334;SDS011;6233;51.560;9.986;2023-02-21T13:51:48;8.10;;;5.97;;
12334;SDS011;6233;51.560;9.986;2023-02-21T14:01:22;9.80;;;6.83;;
12334;SDS011;6233;51.560;9.986;2023-02-21T14:08:06;9.97;;;7.13;;
12334;SDS011;6233;51.560;9.986;2023-02-21T14:11:22;10.30;;;6.87;;
12334;SDS011;6233;51.560;9.986;2023-02-21T14:14:30;9.57;;;6.97;;
12334;SDS011;6233;51.560;9.986;2023-02-21T14:17:34;8.97;;;6.90;;
12334;SDS011;6233;51.560;9.986;2023-02-21T14:20:37;8.63;;;6.53;;
12334;SDS011;6233;51.560;9.986;2023-02-21T14:23:46;7.47;;;5.57;;
12334;SDS011;6233;51.560;9.986;2023-02-21T14:33:23;6.90;;;5.63;;
12334;SDS011;6233;51.560;9.986;2023-02-21T14:36:26;7.83;;;5.73;;
12334;SDS011;6233;51.560;9.986;2023-02-21T14:39:32;7.53;;;5.97;;
12334;SDS011;6233;51.560;9.986;2023-02-21T14:42:49;8.53;;;6.17;;
12334;SDS011;6233;51.560;9.986;2023-02-21T15:03:23;8.90;;;6.40;;
12334;SDS011;6233;51.560;9.986;2023-02-21T15:06:30;9.20;;;7.77;;
12334;SDS011;6233;51.560;9.986;2023-02-21T15:09:33;9.30;;;7.10;;
12334;SDS011;6233;51.560;9.986;2023-02-21T15:12:42;9.83;;;6.87;;
12334;SDS011;6233;51.560;9.986;2023-02-21T15:16:03;9.33;;;7.30;;
12334;SDS011;6233;51.560;9.986;2023-02-21T15:23:22;9.40;;;7.30;;
12334;SDS011;6233;51.560;9.986;2023-02-21T15:26:30;10.17;;;7.67;;
12334;SDS011;6233;51.560;9.986;2023-02-21T15:29:34;9.73;;;7.47;;
12334;SDS011;6233;51.560;9.986;2023-02-21T15:32:36;9.70;;;7.20;;
12334;SDS011;6233;51.560;9.986;2023-02-21T15:41:55;10.53;;;7.30;;
12334;SDS011;6233;51.560;9.986;2023-02-21T15:45:04;11.17;;;7.67;;
12334;SDS011;6233;51.560;9.986;2023-02-21T15:48:27;10.40;;;8.00;;
12334;SDS011;6233;51.560;9.986;2023-02-21T15:51:38;9.47;;;7.33;;
12334;SDS011;6233;51.560;9.986;2023-02-21T15:54:40;10.67;;;7.20;;
12334;SDS011;6233;51.560;9.986;2023-02-21T16:01:07;11.97;;;7.83;;
12334;SDS011;6233;51.560;9.986;2023-02-21T16:07:39;9.37;;;7.17;;
12334;SDS011;6233;51.560;9.986;2023-02-21T16:10:40;12.03;;;8.40;;
12334;SDS011;6233;51.560;9.986;2023-02-21T16:13:53;11.37;;;7.87;;
12334;SDS011;6233;51.560;9.986;2023-02-21T16:20:17;12.13;;;8.00;;
12334;SDS011;6233;51.560;9.986;2023-02-21T16:23:25;14.00;;;10.60;;
12334;SDS011;6233;51.560;9.986;2023-02-21T16:26:39;13.17;;;9.17;;
12334;SDS011;6233;51.560;9.986;2023-02-21T16:29:41;12.47;;;8.93;;
12334;SDS011;6233;51.560;9.986;2023-02-21T16:32:43;12.37;;;8.50;;
12334;SDS011;6233;51.560;9.986;2023-02-21T16:35:46;14.23;;;8.80;;
12334;SDS011;6233;51.560;9.986;2023-02-21T16:38:48;12.67;;;8.87;;
12334;SDS011;6233;51.560;9.986;2023-02-21T16:41:50;12.03;;;8.57;;
12334;SDS011;6233;51.560;9.986;2023-02-21T16:44:52;13.33;;;9.80;;
12334;SDS011;6233;51.560;9.986;2023-02-21T16:47:55;13.90;;;9.67;;
12334;SDS011;6233;51.560;9.986;2023-02-21T16:54:33;15.77;;;9.90;;
12334;SDS011;6233;51.560;9.986;2023-02-21T16:57:35;16.83;;;10.50;;
12334;SDS011;6233;51.560;9.986;2023-02-21T17:00:37;14.40;;;9.97;;
12334;SDS011;6233;51.560;9.986;2023-02-21T17:03:38;14.10;;;9.90;;
12334;SDS011;6233;51.560;9.986;2023-02-21T17:06:50;16.73;;;10.43;;
12334;SDS011;6233;51.560;9.986;2023-02-21T17:09:57;14.53;;;10.03;;
12334;SDS011;6233;51.560;9.986;2023-02-21T17:12:59;14.30;;;10.60;;
12334;SDS011;6233;51.560;9.986;2023-02-21T17:16:03;15.60;;;10.47;;
12334;SDS011;6233;51.560;9.986;2023-02-21T17:19:05;16.00;;;9.80;;
12334;SDS011;6233;51.560;9.986;2023-02-21T17:22:12;17.83;;;11.70;;
12334;SDS011;6233;51.560;9.986;2023-02-21T17:25:14;15.73;;;10.33;;
12334;SDS011;6233;51.560;9.986;2023-02-21T17:28:16;19.40;;;13.03;;
12334;SDS011;6233;51.560;9.986;2023-02-21T17:31:18;17.90;;;11.73;;
12334;SDS011;6233;51.560;9.986;2023-02-21T17:34:20;18.93;;;12.77;;
12334;SDS011;6233;51.560;9.986;2023-02-21T17:37:22;17.47;;;11.60;;
12334;SDS011;6233;51.560;9.986;2023-02-21T17:40:24;16.77;;;11.40;;
12334;SDS011;6233;51.560;9.986;2023-02-21T17:43:26;17.10;;;11.70;;
12334;SDS011;6233;51.560;9.986;2023-02-21T17:46:27;17.60;;;11.70;;
12334;SDS011;6233;51.560;9.986;2023-02-21T17:49:29;20.27;;;12.13;;
12334;SDS011;6233;51.560;9.986;2023-02-21T17:52:31;17.90;;;12.27;;
12334;SDS011;6233;51.560;9.986;2023-02-21T17:55:33;19.17;;;12.17;;
12334;SDS011;6233;51.560;9.986;2023-02-21T17:58:34;17.40;;;11.63;;
12334;SDS011;6233;51.560;9.986;2023-02-21T18:01:36;19.97;;;12.13;;
12334;SDS011;6233;51.560;9.986;2023-02-21T18:04:38;17.73;;;11.40;;
12334;SDS011;6233;51.560;9.986;2023-02-21T18:07:41;17.77;;;10.97;;
12334;SDS011;6233;51.560;9.986;2023-02-21T18:10:47;15.07;;;10.60;;
12334;SDS011;6233;51.560;9.986;2023-02-21T18:13:49;17.73;;;11.33;;
12334;SDS011;6233;51.560;9.986;2023-02-21T18:16:51;16.80;;;11.40;;
12334;SDS011;6233;51.560;9.986;2023-02-21T18:19:56;17.03;;;11.07;;
12334;SDS011;6233;51.560;9.986;2023-02-21T18:22:58;16.67;;;10.57;;
12334;SDS011;6233;51.560;9.986;2023-02-21T18:26:00;16.77;;;10.47;;
12334;SDS011;6233;51.560;9.986;2023-02-21T18:29:03;15.30;;;9.73;;
12334;SDS011;6233;51.560;9.986;2023-02-21T18:32:06;15.60;;;10.17;;
12334;SDS011;6233;51.560;9.986;2023-02-21T18:35:08;17.63;;;10.57;;
12334;SDS011;6233;51.560;9.986;2023-02-21T18:38:10;16.87;;;10.63;;
12334;SDS011;6233;51.560;9.986;2023-02-21T18:41:13;16.20;;;10.60;;
12334;SDS011;6233;51.560;9.986;2023-02-21T18:44:17;16.00;;;10.77;;
12334;SDS011;6233;51.560;9.986;2023-02-21T18:47:19;17.87;;;11.13;;
12334;SDS011;6233;51.560;9.986;2023-02-21T18:50:33;16.43;;;10.90;;
12334;SDS011;6233;51.560;9.986;2023-02-21T18:53:36;15.13;;;9.87;;
12334;SDS011;6233;51.560;9.986;2023-02-21T18:56:43;12.60;;;9.50;;
12334;SDS011;6233;51.560;9.986;2023-02-21T18:59:49;15.07;;;10.17;;
12334;SDS011;6233;51.560;9.986;2023-02-21T19:02:50;16.47;;;11.03;;
12334;SDS011;6233;51.560;9.986;2023-02-21T19:05:52;22.27;;;12.93;;
12334;SDS011;6233;51.560;9.986;2023-02-21T19:08:54;21.77;;;14.63;;
12334;SDS011;6233;51.560;9.986;2023-02-21T19:11:56;23.07;;;14.03;;
12334;SDS011;6233;51.560;9.986;2023-02-21T19:14:58;19.67;;;13.23;;
12334;SDS011;6233;51.560;9.986;2023-02-21T19:17:59;18.37;;;12.00;;
12334;SDS011;6233;51.560;9.986;2023-02-21T19:21:01;16.37;;;11.63;;
12334;SDS011;6233;51.560;9.986;2023-02-21T19:24:02;18.40;;;12.63;;
12334;SDS011;6233;51.560;9.986;2023-02-21T19:27:04;19.23;;;12.67;;
12334;SDS011;6233;51.560;9.986;2023-02-21T19:30:06;21.80;;;14.17;;
12334;SDS011;6233;51.560;9.986;2023-02-21T19:33:20;19.70;;;13.03;;
12334;SDS011;6233;51.560;9.986;2023-02-21T19:36:24;20.23;;;12.40;;
12334;SDS011;6233;51.560;9.986;2023-02-21T19:39:25;19.00;;;12.60;;
12334;SDS011;6233;51.560;9.986;2023-02-21T19:42:27;19.37;;;12.33;;
12334;SDS011;6233;51.560;9.986;2023-02-21T19:45:29;20.43;;;12.57;;
12334;SDS011;6233;51.560;9.986;2023-02-21T19:48:46;19.73;;;12.87;;
12334;SDS011;6233;51.560;9.986;2023-02-21T19:51:49;19.93;;;12.60;;
12334;SDS011;6233;51.560;9.986;2023-02-21T19:54:53;16.33;;;12.17;;
12334;SDS011;6233;51.560;9.986;2023-02-21T19:57:55;19.97;;;13.20;;
12334;SDS011;6233;51.560;9.986;2023-02-21T20:00:57;19.30;;;13.07;;
12334;SDS011;6233;51.560;9.986;2023-02-21T20:03:59;19.17;;;12.43;;
12334;SDS011;6233;51.560;9.986;2023-02-21T20:07:01;21.67;;;13.30;;
12334;SDS011;6233;51.560;9.986;2023-02-21T20:10:03;19.20;;;13.20;;
12334;SDS011;6233;51.560;9.986;2023-02-21T20:13:05;19.50;;;12.27;;
12334;SDS011;6233;51.560;9.986;2023-02-21T20:16:09;18.60;;;11.90;;
12334;SDS011;6233;51.560;9.986;2023-02-21T20:19:11;17.47;;;11.83;;
12334;SDS011;6233;51.560;9.986;2023-02-21T20:22:14;20.10;;;13.00;;
12334;SDS011;6233;51.560;9.986;2023-02-21T20:25:15;20.73;;;14.70;;
12334;SDS011;6233;51.560;9.986;2023-02-21T20:28:17;21.60;;;14.57;;
12334;SDS011;6233;51.560;9.986;2023-02-21T20:31:21;20.87;;;14.47;;
12334;SDS011;6233;51.560;9.986;2023-02-21T20:34:26;21.00;;;14.33;;
12334;SDS011;6233;51.560;9.986;2023-02-21T20:37:28;15.47;;;10.00;;
12334;SDS011;6233;51.560;9.986;2023-02-21T20:40:31;11.83;;;8.07;;
12334;SDS011;6233;51.560;9.986;2023-02-21T20:43:34;15.13;;;7.80;;
12334;SDS011;6233;51.560;9.986;2023-02-21T20:46:36;16.43;;;9.63;;
12334;SDS011;6233;51.560;9.986;2023-02-21T20:49:41;12.33;;;8.20;;
12334;SDS011;6233;51.560;9.986;2023-02-21T20:52:46;12.10;;;7.73;;
12334;SDS011;6233;51.560;9.986;2023-02-21T20:55:51;10.90;;;7.27;;
12334;SDS011;6233;51.560;9.986;2023-02-21T21:02:22;14.03;;;7.63;;
12334;SDS011;6233;51.560;9.986;2023-02-21T21:05:24;14.67;;;8.73;;
12334;SDS011;6233;51.560;9.986;2023-02-21T21:08:31;22.50;;;15.37;;
12334;SDS011;6233;51.560;9.986;2023-02-21T21:11:33;15.63;;;10.20;;
12334;SDS011;6233;51.560;9.986;2023-02-21T21:14:36;11.50;;;8.00;;
12334;SDS011;6233;51.560;9.986;2023-02-21T21:21:10;10.53;;;7.43;;
12334;SDS011;6233;51.560;9.986;2023-02-21T21:24:11;11.80;;;7.97;;
12334;SDS011;6233;51.560;9.986;2023-02-21T21:27:13;11.83;;;7.70;;
12334;SDS011;6233;51.560;9.986;2023-02-21T21:30:16;11.10;;;8.07;;
12334;SDS011;6233;51.560;9.986;2023-02-21T21:33:22;11.60;;;8.00;;
12334;SDS011;6233;51.560;9.986;2023-02-21T21:36:24;7.80;;;5.87;;
12334;SDS011;6233;51.560;9.986;2023-02-21T21:39:26;6.20;;;4.50;;
12334;SDS011;6233;51.560;9.986;2023-02-21T21:42:28;7.43;;;4.47;;
12334;SDS011;6233;51.560;9.986;2023-02-21T21:45:30;6.23;;;4.00;;